KTSP

Details ICAO KTSP
Name TEHACHAPI MUNI
Region United States
Timezone America/Los_Angeles (UTC-8.0)
Plans Departing 11
Arriving 12
Stats Elevation 4,001 ft / 1,220 m (AMSL)
Location 35.135000° -118.439000°
Runways 1
Magnetic Variation 12.156° E
Sunrise 2018-12-16 14:56:49 UTC / 2018-12-16 06:56:49 Local
Sunset 2018-12-17 00:44:47 UTC / 2018-12-16 16:44:47 Local
Advertisement - Login to hide

Runways

ID Width Length Bearing (true/mag) Surface Threshold Overrun Markings Lighting
11 85 ft / 26 m 4,027 ft / 1,227 m 124.75° / 112.59° ASPHALT 305 ft / 93 m 0 ft / 0 m APP EDGE THRESHOLD
29 85 ft / 26 m 4,027 ft / 1,227 m 304.75° / 292.60° ASPHALT 384 ft / 117 m 0 ft / 0 m APP EDGE THRESHOLD

Map

Weather


0- 5 10 15 20 25 30 35+ Temperature / °C

Clouds and Precipitation
Forecast for 2018-12-16 12:00 UTC. Updated 5 hours ago

Ground ~20,000 ft ~40,000 ft Winds

METAR

KTSP 161415Z AUTO 11004KT 10SM CLR 02/M07 A3019 RMK AO2

TAF

Not found

Frequencies

Unicom 123.00 MHz CTAF/UNICOM
Warning: Do not use this data for real-world aviation or navigation. No guarantee of current accuracy is given.